createdAt,value
2018-07-23T00:02:01.774Z,99087.97
2018-07-23T00:04:30.144Z,99082.25
2018-07-23T00:06:58.785Z,99086.16
2018-07-23T00:09:27.599Z,99081.50
2018-07-23T00:11:56.003Z,99083.23
2018-07-23T00:14:24.354Z,99077.47
2018-07-23T00:16:52.767Z,99076.96
2018-07-23T00:19:21.143Z,99077.75
2018-07-23T00:21:50.102Z,99071.33
2018-07-23T00:24:18.504Z,99067.86
2018-07-23T00:26:47.249Z,99070.92
2018-07-23T00:29:15.637Z,99069.05
2018-07-23T00:31:44.526Z,99066.69
2018-07-23T00:34:13.100Z,99061.13
2018-07-23T00:36:42.398Z,99068.97
2018-07-23T00:39:11.069Z,99065.15
2018-07-23T00:41:39.482Z,99063.75
2018-07-23T00:44:07.847Z,99066.39
2018-07-23T00:46:36.264Z,99065.78
2018-07-23T00:49:04.892Z,99066.08
2018-07-23T00:51:33.304Z,99060.70
2018-07-23T00:54:01.690Z,99058.60
2018-07-23T00:56:30.073Z,99066.62
2018-07-23T00:58:58.481Z,99064.01
2018-07-23T01:01:26.940Z,99071.27
2018-07-23T01:03:55.335Z,99062.72
2018-07-23T01:06:23.729Z,99062.64
2018-07-23T01:08:52.996Z,99067.82
2018-07-23T01:11:21.397Z,99063.25
2018-07-23T01:13:49.782Z,99064.45
2018-07-23T01:16:18.279Z,99064.03
2018-07-23T01:18:46.883Z,99068.16
2018-07-23T01:21:15.295Z,99075.32
2018-07-23T01:23:43.697Z,99081.68
2018-07-23T01:26:12.208Z,99073.53
2018-07-23T01:28:40.598Z,99069.59
2018-07-23T01:31:10.377Z,99068.56
2018-07-23T01:33:39.197Z,99071.48
2018-07-23T01:36:07.592Z,99071.89
2018-07-23T01:38:35.988Z,99074.27
2018-07-23T01:41:04.422Z,99074.39
2018-07-23T01:43:33.397Z,99077.91
2018-07-23T01:46:01.937Z,99073.72
2018-07-23T01:48:30.478Z,99069.27
2018-07-23T01:51:00.286Z,99052.48
2018-07-23T01:53:28.849Z,99078.58
2018-07-23T01:55:57.646Z,99083.34
2018-07-23T01:58:26.056Z,99086.03
2018-07-23T02:00:54.609Z,99075.50
2018-07-23T02:03:24.901Z,99083.36
2018-07-23T02:05:53.311Z,99078.44
2018-07-23T02:08:21.696Z,99085.31
2018-07-23T02:10:50.385Z,99084.55
2018-07-23T02:13:18.757Z,99083.97
2018-07-23T02:15:47.685Z,99081.15
2018-07-23T02:18:16.139Z,99079.47
2018-07-23T02:20:44.489Z,99086.34
2018-07-23T02:23:12.869Z,99088.20
2018-07-23T02:25:41.223Z,99087.63
2018-07-23T02:28:09.689Z,99090.18
2018-07-23T02:30:38.669Z,99099.34
2018-07-23T02:33:07.426Z,99096.73
2018-07-23T02:35:37.460Z,99089.16
2018-07-23T02:38:07.212Z,99090.51
2018-07-23T02:40:36.067Z,99089.80
2018-07-23T02:43:04.494Z,99093.84
2018-07-23T02:45:32.962Z,99100.94
2018-07-23T02:48:01.427Z,99092.80
2018-07-23T02:50:29.820Z,99095.41
2018-07-23T02:52:58.225Z,99097.77
2018-07-23T02:55:26.705Z,99096.27
2018-07-23T02:57:55.138Z,99098.24
2018-07-23T03:00:24.155Z,99101.63
2018-07-23T03:02:52.613Z,99108.05
2018-07-23T03:05:21.046Z,99099.81
2018-07-23T03:07:49.532Z,99101.81
2018-07-23T03:10:18.747Z,99112.29
2018-07-23T03:12:47.195Z,99109.22
2018-07-23T03:15:15.666Z,99109.53
2018-07-23T03:17:44.105Z,99114.25
2018-07-23T03:20:12.802Z,99112.59
2018-07-23T03:22:41.214Z,99109.05
2018-07-23T03:25:10.413Z,99112.06
2018-07-23T03:27:38.878Z,99115.13
2018-07-23T03:30:08.332Z,99109.75
2018-07-23T03:32:37.050Z,99104.23
2018-07-23T03:35:05.699Z,99106.59
2018-07-23T03:37:34.566Z,99110.30
2018-07-23T03:40:03.627Z,99112.84
2018-07-23T03:42:32.061Z,99120.23
2018-07-23T03:45:01.242Z,99114.71
2018-07-23T03:47:29.938Z,99116.16
2018-07-23T03:49:59.025Z,98961.95
2018-07-23T03:52:27.509Z,99121.47
2018-07-23T03:54:55.947Z,99127.31
2018-07-23T03:57:24.806Z,99127.97
2018-07-23T03:59:53.213Z,99129.34
2018-07-23T04:02:22.205Z,99129.34
2018-07-23T04:04:51.582Z,99124.77
2018-07-23T04:07:20.046Z,99133.30
2018-07-23T04:09:48.484Z,99135.61
2018-07-23T04:12:17.723Z,99137.99
2018-07-23T04:14:46.150Z,99137.96
2018-07-23T04:17:14.613Z,99139.30
2018-07-23T04:19:43.314Z,99139.14
2018-07-23T04:22:14.050Z,99143.02
2018-07-23T04:24:42.461Z,99144.20
2018-07-23T04:27:11.501Z,99148.16
2018-07-23T04:29:40.831Z,99156.52
2018-07-23T04:32:09.258Z,99159.42
2018-07-23T04:34:37.708Z,99159.58
2018-07-23T04:37:06.195Z,99156.88
2018-07-23T04:39:35.348Z,99157.00
2018-07-23T04:42:03.809Z,99162.52
2018-07-23T04:44:32.208Z,99168.89
2018-07-23T04:47:00.670Z,98988.56
2018-07-23T04:49:29.350Z,99167.47
2018-07-23T04:51:58.341Z,99173.52
2018-07-23T04:54:27.274Z,99167.67
2018-07-23T04:56:56.259Z,99170.14
2018-07-23T04:59:25.094Z,99170.13
2018-07-23T05:01:54.238Z,99171.30
2018-07-23T05:04:22.827Z,99176.25
2018-07-23T05:06:52.256Z,99172.80
2018-07-23T05:09:20.703Z,99173.81
2018-07-23T05:11:49.914Z,99180.20
2018-07-23T05:14:18.338Z,99184.75
2018-07-23T05:16:47.672Z,99180.95
2018-07-23T05:19:16.617Z,99181.94
2018-07-23T05:21:45.055Z,99173.66
2018-07-23T05:24:13.811Z,99175.72
2018-07-23T05:26:42.577Z,99177.92
2018-07-23T05:29:12.773Z,99176.23
2018-07-23T05:31:41.829Z,99182.88
2018-07-23T05:34:11.713Z,99186.99
2018-07-23T05:36:40.166Z,99180.27
2018-07-23T05:39:11.422Z,99183.82
2018-07-23T05:41:40.930Z,99185.53
2018-07-23T05:44:10.250Z,99180.30
2018-07-23T05:46:39.582Z,99188.66
2018-07-23T05:49:08.044Z,99197.58
2018-07-23T05:51:36.716Z,99194.09
2018-07-23T05:54:05.955Z,99195.99
2018-07-23T05:56:34.949Z,99200.79
2018-07-23T05:59:03.373Z,99198.90
2018-07-23T06:01:32.878Z,99200.34
2018-07-23T06:04:03.145Z,99203.86
2018-07-23T06:06:32.054Z,99203.38
2018-07-23T06:09:03.630Z,99203.70
2018-07-23T06:11:33.061Z,99201.61
2018-07-23T06:14:02.574Z,99208.08
2018-07-23T06:16:33.154Z,99203.89
2018-07-23T06:19:04.221Z,99209.83
2018-07-23T06:21:34.490Z,99207.48
2018-07-23T06:24:02.960Z,99206.22
2018-07-23T06:26:32.452Z,99207.02
2018-07-23T06:29:00.894Z,99215.31
2018-07-23T06:31:29.858Z,99218.42
2018-07-23T06:33:58.695Z,99219.59
2018-07-23T06:36:27.110Z,99221.25
2018-07-23T06:38:55.599Z,99220.51
2018-07-23T06:41:25.560Z,99213.35
2018-07-23T06:43:55.275Z,99219.42
2018-07-23T06:46:23.725Z,99218.45
2018-07-23T06:48:52.156Z,99216.30
2018-07-23T06:51:21.632Z,99218.98
2018-07-23T06:53:50.088Z,99212.15
2018-07-23T06:56:18.573Z,99211.38
2018-07-23T06:58:47.363Z,99215.14
2018-07-23T07:01:15.906Z,99215.11
2018-07-23T07:03:44.923Z,99222.55
2018-07-23T07:06:14.278Z,99221.68
2018-07-23T07:08:43.970Z,99222.09
2018-07-23T07:11:12.936Z,99226.56
2018-07-23T07:13:41.518Z,99226.95
2018-07-23T07:16:12.480Z,99223.87
2018-07-23T07:18:41.001Z,99226.95
2018-07-23T07:21:09.703Z,99223.95
2018-07-23T07:23:39.028Z,99220.48
2018-07-23T07:26:09.362Z,99215.58
2018-07-23T07:28:38.031Z,99216.98
2018-07-23T07:31:07.625Z,99209.27
2018-07-23T07:33:36.238Z,99214.30
2018-07-23T07:36:06.259Z,99211.21
2018-07-23T07:38:35.706Z,99215.86
2018-07-23T07:41:04.373Z,99224.70
2018-07-23T07:43:33.859Z,99221.05
2018-07-23T07:46:02.679Z,99223.50
2018-07-23T07:48:32.154Z,99213.75
2018-07-23T07:51:00.593Z,99214.63
2018-07-23T07:53:29.741Z,99213.80
2018-07-23T07:55:58.643Z,99218.03
2018-07-23T07:58:27.424Z,99184.89
2018-07-23T08:00:56.034Z,99210.73
2018-07-23T08:03:24.608Z,99210.50
2018-07-23T08:05:53.068Z,99211.62
2018-07-23T08:08:22.225Z,99210.08
2018-07-23T08:10:53.516Z,99203.91
2018-07-23T08:13:21.961Z,99204.61
2018-07-23T08:15:51.231Z,99203.63
2018-07-23T08:18:20.579Z,99206.70
2018-07-23T08:20:49.536Z,99207.17
2018-07-23T08:23:19.235Z,99203.85
2018-07-23T08:25:49.372Z,99194.90
2018-07-23T08:28:17.852Z,99199.83
2018-07-23T08:30:46.276Z,99194.15
2018-07-23T08:33:14.838Z,99198.31
2018-07-23T08:35:43.772Z,99204.73
2018-07-23T08:38:14.306Z,99203.85
2018-07-23T08:40:44.891Z,99200.14
2018-07-23T08:43:14.051Z,99201.01
2018-07-23T08:45:42.490Z,99199.59
2018-07-23T08:48:11.858Z,99201.92
2018-07-23T08:50:40.334Z,99204.30
2018-07-23T08:53:08.829Z,99200.02
2018-07-23T08:55:37.744Z,99203.02
2018-07-23T08:58:08.220Z,99195.95
2018-07-23T09:00:36.808Z,99207.84
2018-07-23T09:03:05.238Z,99205.69
2018-07-23T09:05:34.468Z,99209.28
2018-07-23T09:08:02.971Z,99205.31
2018-07-23T09:10:31.902Z,99206.72
2018-07-23T09:13:01.326Z,99204.21
2018-07-23T09:15:29.806Z,99203.03
2018-07-23T09:17:59.756Z,99198.41
2018-07-23T09:20:28.663Z,99199.14
2018-07-23T09:22:57.235Z,99198.75
2018-07-23T09:25:29.835Z,99197.66
2018-07-23T09:27:59.677Z,99195.20
2018-07-23T09:30:34.334Z,99198.76
2018-07-23T09:33:04.784Z,99197.36
2018-07-23T09:35:33.849Z,99195.39
2018-07-23T09:38:03.035Z,99195.93
2018-07-23T09:40:33.517Z,99196.06
2018-07-23T09:43:03.028Z,99200.81
2018-07-23T09:45:31.516Z,99202.41
2018-07-23T09:48:01.333Z,99210.09
2018-07-23T09:50:32.048Z,99197.73
2018-07-23T09:53:00.547Z,99194.16
2018-07-23T09:55:30.517Z,99206.27
2018-07-23T09:58:01.443Z,99196.59
2018-07-23T10:00:35.078Z,99194.83
2018-07-23T10:03:03.568Z,99188.14
2018-07-23T10:05:32.167Z,99188.36
2018-07-23T10:08:00.876Z,99183.63
2018-07-23T10:10:31.487Z,99182.86
2018-07-23T10:13:00.828Z,99182.97
2018-07-23T10:15:29.841Z,99189.62
2018-07-23T10:17:58.409Z,99184.84
2018-07-23T10:20:28.608Z,99179.59
2018-07-23T10:22:57.791Z,99185.19
2018-07-23T10:25:27.614Z,99178.25
2018-07-23T10:27:56.457Z,99178.31
2018-07-23T10:30:25.263Z,99172.02
2018-07-23T10:32:54.744Z,99174.32
2018-07-23T10:35:29.567Z,99172.63
2018-07-23T10:37:59.225Z,99172.61
2018-07-23T10:40:29.643Z,99173.16
2018-07-23T10:42:58.208Z,99169.76
2018-07-23T10:45:27.353Z,99167.28
2018-07-23T10:47:56.034Z,99163.14
2018-07-23T10:50:24.954Z,99164.72
2018-07-23T10:52:54.913Z,99162.61
2018-07-23T10:55:24.884Z,99156.97
2018-07-23T10:57:54.330Z,99161.52
2018-07-23T11:00:24.061Z,99156.23
2018-07-23T11:02:53.710Z,99159.17
2018-07-23T11:05:22.562Z,99159.10
2018-07-23T11:07:51.631Z,99145.22
2018-07-23T11:10:20.075Z,99159.09
2018-07-23T11:12:49.061Z,99161.59
2018-07-23T11:15:18.805Z,99155.87
2018-07-23T11:17:47.220Z,99159.38
2018-07-23T11:20:16.629Z,99160.92
2018-07-23T11:22:47.508Z,99162.70
2018-07-23T11:25:38.702Z,99159.42
2018-07-23T11:27:46.200Z,99162.53
2018-07-23T11:30:15.266Z,99163.41
2018-07-23T11:32:44.314Z,99155.06
2018-07-23T11:35:18.789Z,99153.44
2018-07-23T11:37:48.456Z,99150.81
2018-07-23T11:40:17.775Z,99151.02
2018-07-23T11:42:46.442Z,99149.17
2018-07-23T11:45:19.828Z,99147.89
2018-07-23T11:47:50.162Z,99143.17
2018-07-23T11:50:24.250Z,99149.81
2018-07-23T11:52:52.987Z,99147.91
2018-07-23T11:55:21.583Z,99140.64
2018-07-23T11:57:50.959Z,99143.40
2018-07-23T12:00:20.101Z,99146.61
2018-07-23T12:02:48.664Z,99142.11
2018-07-23T12:05:17.123Z,99140.36
2018-07-23T12:07:45.880Z,99132.72
2018-07-23T12:10:15.363Z,99135.75
2018-07-23T12:12:46.853Z,99132.67
2018-07-23T12:15:16.685Z,99139.27
2018-07-23T12:17:47.809Z,99136.56
2018-07-23T12:20:16.424Z,99134.71
2018-07-23T12:22:46.215Z,99132.22
2018-07-23T12:25:17.319Z,99130.84
2018-07-23T12:27:45.942Z,99123.64
2018-07-23T12:30:15.071Z,99120.43
2018-07-23T12:32:43.896Z,99120.96
2018-07-23T12:35:13.096Z,99125.85
2018-07-23T12:37:42.282Z,99125.86
2018-07-23T12:40:12.214Z,99127.03
2018-07-23T12:42:41.250Z,99121.99
2018-07-23T12:45:10.338Z,99125.47
2018-07-23T12:47:40.008Z,99123.61
2018-07-23T12:50:08.536Z,99121.39
2018-07-23T12:52:37.008Z,99124.07
2018-07-23T12:55:06.601Z,99113.34
2018-07-23T12:57:35.454Z,99107.81
2018-07-23T13:00:04.321Z,99108.96
2018-07-23T13:02:33.089Z,99109.80
2018-07-23T13:05:01.818Z,99112.89
2018-07-23T13:07:30.360Z,99115.92
2018-07-23T13:09:59.309Z,99111.22
2018-07-23T13:12:29.682Z,99105.45
2018-07-23T13:15:00.226Z,99112.04
2018-07-23T13:17:28.997Z,99110.70
2018-07-23T13:19:57.629Z,99104.53
2018-07-23T13:22:26.225Z,99108.62
2018-07-23T13:24:54.853Z,99118.34
2018-07-23T13:27:23.650Z,99104.10
2018-07-23T13:29:53.692Z,99111.47
2018-07-23T13:32:22.281Z,99106.27
2018-07-23T13:34:52.170Z,99105.84
2018-07-23T13:37:21.156Z,99114.45
2018-07-23T13:39:51.329Z,99103.80
2018-07-23T13:42:21.122Z,99099.19
2018-07-23T13:44:49.944Z,99107.12
2018-07-23T13:47:18.533Z,99106.58
2018-07-23T13:49:47.307Z,99107.14
2018-07-23T13:52:16.814Z,99112.08
2018-07-23T13:54:46.796Z,99107.74
2018-07-23T13:57:16.809Z,99104.48
2018-07-23T13:59:46.812Z,99107.63
2018-07-23T14:02:17.093Z,99070.45
2018-07-23T14:04:47.147Z,99097.17
2018-07-23T14:07:17.546Z,99096.52
2018-07-23T14:09:47.527Z,99100.17
2018-07-23T14:12:17.932Z,99092.95
2018-07-23T14:14:47.090Z,99091.87
2018-07-23T14:17:16.348Z,99091.03
2018-07-23T14:19:46.058Z,99081.13
2018-07-23T14:22:18.970Z,99090.84
2018-07-23T14:24:47.892Z,99076.97
2018-07-23T14:27:16.989Z,99084.92
2018-07-23T14:29:45.853Z,99082.38
2018-07-23T14:32:14.367Z,99051.11
2018-07-23T14:34:42.830Z,99078.38
2018-07-23T14:37:11.312Z,99079.52
2018-07-23T14:39:40.315Z,99068.02
2018-07-23T14:42:09.073Z,99074.69
2018-07-23T14:44:38.788Z,99069.22
2018-07-23T14:47:07.213Z,99045.20
2018-07-23T14:49:35.691Z,99066.38
2018-07-23T14:52:04.358Z,99063.30
2018-07-23T14:54:33.513Z,99061.77
2018-07-23T14:57:02.540Z,99061.77
2018-07-23T14:59:31.250Z,99055.44
2018-07-23T15:01:59.855Z,99055.98
2018-07-23T15:04:28.396Z,99057.61
2018-07-23T15:06:57.126Z,99059.46
2018-07-23T15:09:26.046Z,99058.61
2018-07-23T15:11:55.410Z,99055.70
2018-07-23T15:14:25.817Z,99052.72
2018-07-23T15:16:54.274Z,99050.56
2018-07-23T15:19:24.529Z,99051.34
2018-07-23T15:21:53.569Z,99052.95
2018-07-23T15:24:23.153Z,99047.04
2018-07-23T15:26:52.474Z,99048.09
2018-07-23T15:29:21.884Z,99053.69
2018-07-23T15:31:50.577Z,99046.84
2018-07-23T15:34:20.341Z,99043.02
2018-07-23T15:36:49.140Z,99044.62
2018-07-23T15:39:17.584Z,99045.63
2018-07-23T15:41:46.510Z,99041.64
2018-07-23T15:44:15.825Z,99044.41
2018-07-23T15:46:44.832Z,99040.86
2018-07-23T15:49:14.625Z,99042.08
2018-07-23T15:51:43.082Z,99038.77
2018-07-23T15:54:11.525Z,99040.37
2018-07-23T15:56:40.924Z,99033.92
2018-07-23T15:59:14.029Z,99036.02
2018-07-23T16:01:43.737Z,99031.44
2018-07-23T16:04:13.517Z,99030.58
2018-07-23T16:06:43.174Z,99029.15
2018-07-23T16:09:13.735Z,99030.02
2018-07-23T16:11:42.878Z,99036.53
2018-07-23T16:14:14.870Z,99034.13
2018-07-23T16:16:44.185Z,99029.34
2018-07-23T16:19:13.659Z,99038.80
2018-07-23T16:21:42.895Z,99039.98
2018-07-23T16:24:11.419Z,99037.16
2018-07-23T16:26:42.213Z,99033.99
2018-07-23T16:29:10.962Z,99030.45
2018-07-23T16:31:39.407Z,99031.41
2018-07-23T16:34:08.063Z,99025.94
2018-07-23T16:36:37.126Z,99034.22
2018-07-23T16:39:08.848Z,99032.25
2018-07-23T16:41:37.271Z,99028.09
2018-07-23T16:44:07.145Z,99024.52
2018-07-23T16:46:39.481Z,99033.34
2018-07-23T16:49:08.348Z,99027.41
2018-07-23T16:51:38.267Z,99014.70
2018-07-23T16:54:06.780Z,99022.00
2018-07-23T16:56:36.393Z,99019.16
2018-07-23T16:59:04.837Z,99025.02
2018-07-23T17:01:33.261Z,99019.61
2018-07-23T17:04:02.313Z,99022.90
2018-07-23T17:06:31.613Z,99024.84
2018-07-23T17:09:01.530Z,99021.56
2018-07-23T17:11:33.643Z,99020.53
2018-07-23T17:14:02.570Z,99025.83
2018-07-23T17:27:27.588Z,99028.44
2018-07-23T17:30:00.059Z,99024.65
2018-07-23T17:32:29.605Z,99022.62
2018-07-23T17:35:00.272Z,99022.94
2018-07-23T17:37:31.875Z,99027.38
2018-07-23T17:42:58.405Z,99024.28
2018-07-23T17:45:26.870Z,99018.09
2018-07-23T17:47:55.861Z,99025.73
2018-07-23T17:50:24.259Z,99022.88
2018-07-23T17:52:52.657Z,99024.27
2018-07-23T17:55:21.683Z,99020.57
2018-07-23T17:57:50.032Z,99018.30
2018-07-23T18:00:19.877Z,99022.62
2018-07-23T18:02:48.315Z,99024.46
2018-07-23T18:05:18.144Z,99017.59
2018-07-23T18:07:47.011Z,99019.51
2018-07-23T18:10:15.913Z,99018.91
2018-07-23T18:12:45.321Z,99015.45
2018-07-23T18:15:13.724Z,99021.54
2018-07-23T18:17:42.116Z,99024.04
2018-07-23T18:20:11.302Z,99027.05
2018-07-23T18:22:40.469Z,99027.83
2018-07-23T18:26:12.520Z,99037.93
2018-07-23T18:28:41.202Z,99033.97
2018-07-23T18:31:10.920Z,99037.90
2018-07-23T18:33:39.653Z,99038.87
2018-07-23T18:36:08.109Z,99034.92
2018-07-23T18:38:36.653Z,98978.53
2018-07-23T18:41:06.567Z,99039.06
2018-07-23T18:43:35.387Z,99038.23
2018-07-23T18:46:04.773Z,99037.20
2018-07-23T18:49:42.957Z,99038.43
2018-07-23T18:52:11.697Z,99043.66
2018-07-23T18:54:40.764Z,99046.61
2018-07-23T18:57:09.741Z,99047.67
2018-07-23T18:59:38.175Z,99055.79
2018-07-23T19:02:09.345Z,99055.16
2018-07-23T19:04:38.117Z,99052.75
2018-07-23T19:07:08.232Z,99057.41
2018-07-23T19:09:37.019Z,99058.05
2018-07-23T19:12:06.614Z,99052.81
2018-07-23T19:14:36.027Z,99060.02
2018-07-23T19:17:06.612Z,99062.83
2018-07-23T19:19:36.965Z,99066.64
2018-07-23T19:22:08.149Z,99069.37
2018-07-23T19:24:37.322Z,99075.38
2018-07-23T19:27:06.886Z,99087.13
2018-07-23T19:29:36.510Z,99075.70
2018-07-23T19:32:09.202Z,99079.85
2018-07-23T19:34:38.132Z,99086.92
2018-07-23T19:37:07.283Z,99083.25
2018-07-23T19:39:36.647Z,99083.78
2018-07-23T19:42:06.607Z,99088.84
2018-07-23T19:44:36.420Z,99087.87
2018-07-23T19:47:07.546Z,99091.03
2018-07-23T19:52:18.671Z,99095.29
2018-07-23T19:54:47.575Z,99096.64
2018-07-23T19:57:16.999Z,99098.62
2018-07-23T19:59:47.854Z,98529.02
2018-07-23T20:02:18.192Z,99100.77
2018-07-23T20:04:46.955Z,99100.19
2018-07-23T20:07:16.408Z,99103.79
2018-07-23T20:09:45.124Z,99096.97
2018-07-23T20:12:15.280Z,99097.62
2018-07-23T20:14:44.969Z,99094.42
2018-07-23T20:17:13.749Z,99091.17
2018-07-23T20:19:42.895Z,99094.02
2018-07-23T20:22:11.972Z,99089.18
2018-07-23T20:24:41.498Z,99097.39
2018-07-23T20:27:11.343Z,99087.03
2018-07-23T20:29:40.925Z,99095.36
2018-07-23T20:32:09.495Z,99096.42
2018-07-23T20:34:44.962Z,99096.02
2018-07-23T20:37:14.104Z,99096.93
2018-07-23T20:39:42.556Z,99104.44
2018-07-23T20:42:13.230Z,99096.45
2018-07-23T20:44:42.685Z,99101.34
2018-07-23T20:47:11.513Z,99099.17
2018-07-23T20:49:40.873Z,99101.06
2018-07-23T20:52:10.132Z,99106.16
2018-07-23T20:54:39.750Z,99107.40
2018-07-23T20:57:08.993Z,99108.44
2018-07-23T20:59:38.159Z,99107.70
2018-07-23T21:02:07.184Z,99112.17
2018-07-23T21:04:36.826Z,99111.70
2018-07-23T21:07:07.651Z,99105.87
2018-07-23T21:09:38.079Z,99109.78
2018-07-23T21:12:07.573Z,99104.69
2018-07-23T21:14:40.965Z,99106.91
2018-07-23T21:17:10.944Z,99103.29
2018-07-23T21:19:41.595Z,99107.14
2018-07-23T21:22:11.069Z,99101.86
2018-07-23T21:24:41.185Z,99106.86
2018-07-23T21:27:10.667Z,99106.03
2018-07-23T21:29:40.991Z,99112.00
2018-07-23T21:32:10.501Z,99108.00
2018-07-23T21:34:40.413Z,99108.69
2018-07-23T21:37:10.471Z,99105.88
2018-07-23T21:39:40.236Z,99112.66
2018-07-23T21:42:08.792Z,99100.23
2018-07-23T21:44:38.401Z,99111.20
2018-07-23T21:47:07.974Z,99102.80
2018-07-23T21:49:39.369Z,99107.05
2018-07-23T21:52:08.279Z,99108.95
2018-07-23T21:54:36.755Z,99106.98
2018-07-23T21:57:05.805Z,99108.27
2018-07-23T21:59:34.190Z,99110.17
2018-07-23T22:02:03.269Z,99105.62
2018-07-23T22:04:31.716Z,99112.82
2018-07-23T22:07:00.549Z,99111.27
2018-07-23T22:09:28.967Z,99111.20
2018-07-23T22:11:57.728Z,99116.05
2018-07-23T22:14:28.582Z,99107.58
2018-07-23T22:16:56.977Z,99112.81
2018-07-23T22:19:25.431Z,99110.45
2018-07-23T22:21:54.156Z,99112.19
2018-07-23T22:24:23.341Z,99108.09
2018-07-23T22:26:51.887Z,99114.72
2018-07-23T22:29:21.937Z,99106.42
2018-07-23T22:31:51.329Z,99121.03
2018-07-23T22:34:19.779Z,98967.72
2018-07-23T22:36:48.262Z,99115.06
2018-07-23T22:39:18.166Z,99127.29
2018-07-23T22:41:46.634Z,99123.28
2018-07-23T22:44:15.190Z,99121.84
2018-07-23T22:46:43.673Z,99121.05
2018-07-23T22:49:12.109Z,99118.42
2018-07-23T22:51:40.550Z,99115.75
2018-07-23T22:54:11.795Z,99115.80
2018-07-23T22:56:40.230Z,99116.50
2018-07-23T22:59:08.901Z,99119.40
2018-07-23T23:01:38.298Z,99119.02
2018-07-23T23:04:07.094Z,99117.75
2018-07-23T23:06:35.543Z,99110.95
2018-07-23T23:09:08.073Z,99110.70
2018-07-23T23:11:36.814Z,99117.18
2018-07-23T23:14:16.666Z,99104.99
2018-07-23T23:16:46.135Z,99107.94
2018-07-23T23:19:14.604Z,99110.77
2018-07-23T23:21:43.022Z,99109.34
2018-07-23T23:24:11.996Z,99109.48
2018-07-23T23:26:42.206Z,99105.62
2018-07-23T23:29:10.653Z,99105.05
2018-07-23T23:31:39.399Z,99106.33
2018-07-23T23:34:07.910Z,99104.80
2018-07-23T23:36:36.338Z,99110.14
2018-07-23T23:39:08.345Z,99112.41
2018-07-23T23:41:37.752Z,99111.52
2018-07-23T23:44:06.240Z,99110.08
2018-07-23T23:46:37.047Z,99108.73
2018-07-23T23:49:05.918Z,99118.70
2018-07-23T23:51:34.338Z,99111.97
2018-07-23T23:54:03.027Z,99105.41
2018-07-23T23:56:31.547Z,99099.55
2018-07-23T23:59:00.842Z,99100.71
